Time;durP1;ratioP1;P1;durP2;ratioP2;P2;SDS_P1;SDS_P2;PMS_P1;PMS_P2;Temp;Humidity;BMP_temperature;BMP_pressure;BME280_temperature;BME280_humidity;BME280_pressure;Samples;Min_cycle;Max_cycle;Signal;HPM_P1;HPM_P2
2022/08/25 00:00:40;;;;;;;4.20;1.40;;;24.70;66.30;;;;;;5028891;28;20021;-58
2022/08/25 00:03:06;;;;;;;5.55;1.33;;;24.60;66.30;;;;;;5027454;28;20096;-58
2022/08/25 00:05:32;;;;;;;4.30;1.20;;;24.70;66.40;;;;;;5027921;28;20029;-58
2022/08/25 00:07:58;;;;;;;4.05;1.20;;;24.70;66.30;;;;;;5028116;28;20021;-58
2022/08/25 00:10:24;;;;;;;3.53;1.30;;;24.60;66.30;;;;;;5024589;28;20036;-58
2022/08/25 00:12:49;;;;;;;4.30;1.25;;;24.60;66.30;;;;;;5026680;28;20025;-58
2022/08/25 00:15:15;;;;;;;3.60;1.50;;;24.60;66.30;;;;;;5024396;28;20482;-58
2022/08/25 00:17:41;;;;;;;4.38;1.42;;;24.60;66.40;;;;;;5026605;28;21981;-58
2022/08/25 00:20:08;;;;;;;5.60;1.23;;;24.60;66.40;;;;;;5027353;28;20553;-58
2022/08/25 00:22:34;;;;;;;4.78;1.17;;;24.60;66.30;;;;;;5024282;28;20030;-57
2022/08/25 00:25:00;;;;;;;3.65;1.20;;;24.60;66.30;;;;;;5026751;28;20120;-58
2022/08/25 00:27:26;;;;;;;4.95;1.23;;;24.60;66.40;;;;;;5027628;28;20468;-58
2022/08/25 00:29:52;;;;;;;3.05;1.20;;;24.60;66.40;;;;;;5025560;28;20030;-58
2022/08/25 00:32:18;;;;;;;3.65;1.20;;;24.60;66.40;;;;;;5024049;28;20022;-58
2022/08/25 00:34:43;;;;;;;3.42;1.27;;;24.60;66.40;;;;;;5027083;28;20030;-58
2022/08/25 00:37:09;;;;;;;3.70;1.10;;;24.60;66.40;;;;;;5024271;28;20409;-58
2022/08/25 00:39:35;;;;;;;5.13;1.25;;;24.60;66.40;;;;;;5026913;28;20029;-58
2022/08/25 00:42:01;;;;;;;4.13;1.10;;;24.60;66.40;;;;;;5026536;28;20479;-58
2022/08/25 00:44:28;;;;;;;3.58;1.20;;;24.60;66.40;;;;;;5025005;28;20113;-58
2022/08/25 00:46:55;;;;;;;4.18;1.20;;;24.60;66.80;;;;;;5025690;28;20062;-58
2022/08/25 00:49:47;;;;;;;4.35;1.25;;;24.60;66.40;;;;;;5023169;28;20026;-58
2022/08/25 00:52:19;;;;;;;2.08;1.20;;;24.60;66.50;;;;;;5025791;28;20065;-58
2022/08/25 00:55:10;;;;;;;4.22;1.30;;;24.60;66.40;;;;;;5025893;28;20022;-58
2022/08/25 00:57:42;;;;;;;4.35;1.30;;;24.60;66.50;;;;;;5015382;28;20041;-58
2022/08/25 01:00:14;;;;;;;3.13;1.20;;;24.60;66.50;;;;;;5020522;28;20475;-58
2022/08/25 01:02:39;;;;;;;3.75;0.98;;;24.60;66.50;;;;;;5023562;28;20041;-58
2022/08/25 01:05:06;;;;;;;3.05;1.20;;;24.60;66.50;;;;;;5023087;28;20025;-58
2022/08/25 01:07:32;;;;;;;4.13;1.30;;;24.60;66.50;;;;;;5024305;28;20033;-58
2022/08/25 01:09:59;;;;;;;2.47;1.17;;;24.60;66.60;;;;;;5025530;28;20552;-58
2022/08/25 01:12:24;;;;;;;4.07;1.20;;;24.50;66.50;;;;;;5007374;28;20413;-58
2022/08/25 01:14:50;;;;;;;2.97;1.13;;;24.50;66.50;;;;;;5025813;28;20041;-58
2022/08/25 01:17:16;;;;;;;4.00;1.25;;;24.60;66.60;;;;;;5025497;28;20033;-58
2022/08/25 01:19:41;;;;;;;2.80;1.25;;;24.60;67.60;;;;;;5022451;28;20030;-58
2022/08/25 01:22:07;;;;;;;4.25;1.40;;;24.50;66.50;;;;;;5025738;28;20031;-58
2022/08/25 01:24:57;;;;;;;3.33;1.33;;;24.50;66.60;;;;;;5025391;28;20024;-58
2022/08/25 01:27:23;;;;;;;3.15;1.25;;;24.50;66.50;;;;;;5008517;28;20018;-58
2022/08/25 01:29:49;;;;;;;4.70;1.27;;;24.50;66.50;;;;;;5020772;28;20040;-58
2022/08/25 01:32:14;;;;;;;2.95;1.05;;;24.50;66.60;;;;;;5024491;28;20109;-58
2022/08/25 01:34:43;;;;;;;3.88;1.50;;;24.50;66.60;;;;;;5021668;28;20052;-58
2022/08/25 01:37:09;;;;;;;2.72;1.23;;;24.50;66.60;;;;;;5026069;28;20518;-58
2022/08/25 01:39:35;;;;;;;2.67;1.10;;;24.50;66.70;;;;;;5027148;28;20437;-58
2022/08/25 01:42:25;;;;;;;2.13;1.02;;;24.50;66.60;;;;;;5024841;28;20030;-58
2022/08/25 01:44:51;;;;;;;2.83;1.20;;;24.50;66.60;;;;;;5019656;28;20038;-58
2022/08/25 01:47:17;;;;;;;2.78;1.20;;;24.50;66.70;;;;;;5025058;28;20801;-58
2022/08/25 01:49:43;;;;;;;3.38;1.30;;;24.50;66.60;;;;;;5026178;28;20022;-58
2022/08/25 01:52:28;;;;;;;2.28;1.17;;;24.50;66.70;;;;;;5025896;28;20095;-58
2022/08/25 01:54:54;;;;;;;2.22;1.10;;;24.40;66.60;;;;;;5022056;28;20045;-57
2022/08/25 01:57:21;;;;;;;4.03;1.25;;;24.40;66.60;;;;;;5026612;28;20478;-58
2022/08/25 01:59:46;;;;;;;4.15;1.17;;;24.40;66.70;;;;;;5025323;28;20032;-58
2022/08/25 02:02:12;;;;;;;4.00;1.38;;;24.40;66.60;;;;;;5022975;28;20042;-58
2022/08/25 02:04:38;;;;;;;4.15;1.30;;;24.40;66.60;;;;;;5025236;28;20037;-58
2022/08/25 02:07:05;;;;;;;3.35;1.00;;;24.40;66.70;;;;;;5026434;28;20128;-58
2022/08/25 02:09:31;;;;;;;3.25;1.17;;;24.40;66.60;;;;;;5022880;28;20075;-58
2022/08/25 02:11:58;;;;;;;2.33;1.00;;;24.40;66.70;;;;;;5032771;28;20116;-58
2022/08/25 02:14:24;;;;;;;4.10;1.08;;;24.40;66.70;;;;;;5022065;28;20100;-58
2022/08/25 02:16:51;;;;;;;4.53;1.30;;;24.40;66.70;;;;;;5020352;28;20541;-57
2022/08/25 02:19:17;;;;;;;3.30;1.10;;;24.40;66.70;;;;;;5025528;28;20083;-58
2022/08/25 02:21:43;;;;;;;5.65;1.20;;;24.40;66.70;;;;;;5024764;28;20436;-58
2022/08/25 02:24:09;;;;;;;3.40;1.23;;;24.40;66.70;;;;;;5024884;28;20029;-58
2022/08/25 02:26:35;;;;;;;3.38;1.10;;;24.40;66.70;;;;;;5024153;28;20037;-58
2022/08/25 02:29:01;;;;;;;2.67;1.00;;;24.40;66.70;;;;;;5025062;28;20454;-58
2022/08/25 02:31:26;;;;;;;3.22;1.27;;;24.40;66.70;;;;;;5024631;28;20035;-58
2022/08/25 02:33:52;;;;;;;4.93;1.30;;;24.40;66.70;;;;;;5025668;28;21785;-58
2022/08/25 02:36:18;;;;;;;2.30;1.10;;;24.40;67.80;;;;;;5022784;28;20425;-58
2022/08/25 02:38:44;;;;;;;3.60;1.10;;;24.40;66.80;;;;;;5026385;28;20025;-58
2022/08/25 02:41:12;;;;;;;5.68;1.30;;;24.40;66.80;;;;;;5025289;28;20029;-58
2022/08/25 02:43:41;;;;;;;3.28;1.42;;;24.40;66.90;;;;;;5023815;28;20022;-58
2022/08/25 02:46:07;;;;;;;4.05;1.30;;;24.40;66.80;;;;;;5025009;28;20026;-58
2022/08/25 02:48:33;;;;;;;2.58;1.00;;;24.40;66.90;;;;;;5025643;28;20067;-58
2022/08/25 02:50:59;;;;;;;2.83;1.30;;;24.40;66.80;;;;;;5021179;28;20057;-58
2022/08/25 02:53:25;;;;;;;3.88;1.10;;;24.30;66.80;;;;;;5025048;28;20053;-58
2022/08/25 02:55:51;;;;;;;2.97;1.10;;;24.30;66.80;;;;;;5024099;28;20461;-58
2022/08/25 02:58:16;;;;;;;2.78;1.10;;;24.30;66.80;;;;;;5025322;28;20067;-58
2022/08/25 03:00:42;;;;;;;3.28;1.20;;;24.30;66.70;;;;;;5026064;28;20048;-58
2022/08/25 03:03:08;;;;;;;3.22;1.35;;;24.30;66.80;;;;;;5022935;28;20715;-58
2022/08/25 03:05:33;;;;;;;2.42;1.30;;;24.30;66.80;;;;;;5024688;28;20022;-58
2022/08/25 03:07:59;;;;;;;3.72;1.10;;;24.30;66.80;;;;;;5022312;28;20486;-58
2022/08/25 03:10:25;;;;;;;4.57;1.30;;;24.40;66.90;;;;;;5025408;28;20415;-58
2022/08/25 03:12:50;;;;;;;2.35;1.10;;;24.30;66.80;;;;;;5025932;28;20501;-58
2022/08/25 03:15:16;;;;;;;3.90;1.27;;;24.30;66.80;;;;;;5023284;28;20069;-58
2022/08/25 03:17:46;;;;;;;3.58;1.27;;;24.30;66.80;;;;;;5022765;28;20076;-58
2022/08/25 03:20:12;;;;;;;2.97;1.30;;;24.30;66.80;;;;;;5022569;28;20033;-58
2022/08/25 03:22:37;;;;;;;4.70;1.20;;;24.30;66.80;;;;;;5028605;28;20026;-58
2022/08/25 03:27:48;;;;;;;2.63;1.00;;;24.30;66.80;;;;;;5028803;28;20179;-58
2022/08/25 03:30:14;;;;;;;2.67;1.10;;;24.30;66.80;;;;;;5028396;28;20072;-58
2022/08/25 03:32:40;;;;;;;2.97;1.30;;;24.30;66.90;;;;;;5025666;28;20068;-58
2022/08/25 03:35:06;;;;;;;4.05;1.27;;;24.30;66.80;;;;;;5028529;28;20584;-58
2022/08/25 03:37:32;;;;;;;2.83;1.10;;;24.30;66.80;;;;;;5028687;28;20029;-58
2022/08/25 03:39:58;;;;;;;2.20;1.30;;;24.30;66.80;;;;;;5026626;28;20037;-58
2022/08/25 03:42:24;;;;;;;3.70;1.05;;;24.30;66.90;;;;;;5027910;28;20041;-58
2022/08/25 03:44:50;;;;;;;3.08;1.13;;;24.30;66.80;;;;;;5028967;28;20041;-58
2022/08/25 03:47:15;;;;;;;3.45;1.30;;;24.20;66.90;;;;;;5027277;28;20402;-58
2022/08/25 03:49:41;;;;;;;5.10;1.35;;;24.30;66.90;;;;;;5027774;28;20445;-58
2022/08/25 03:52:06;;;;;;;3.60;1.30;;;24.20;66.80;;;;;;5027800;28;20413;-58
2022/08/25 03:54:32;;;;;;;2.58;0.90;;;24.20;66.80;;;;;;5028568;28;20455;-58
2022/08/25 03:56:58;;;;;;;2.78;1.30;;;24.20;66.90;;;;;;5028471;28;20525;-58
2022/08/25 03:59:24;;;;;;;5.43;1.40;;;24.30;67.00;;;;;;5026901;28;20458;-58
2022/08/25 04:01:50;;;;;;;4.15;1.45;;;24.30;67.00;;;;;;5028855;28;20482;-58
2022/08/25 04:04:16;;;;;;;3.85;1.42;;;24.20;66.90;;;;;;5027728;28;20030;-58
2022/08/25 04:06:42;;;;;;;5.38;1.42;;;24.20;66.90;;;;;;5027593;28;20544;-58
2022/08/25 04:09:08;;;;;;;4.05;1.30;;;24.20;66.90;;;;;;5028137;28;20044;-58
2022/08/25 04:11:34;;;;;;;3.28;1.20;;;24.20;66.90;;;;;;5024672;28;20025;-58
2022/08/25 04:14:01;;;;;;;3.50;1.20;;;24.20;66.90;;;;;;5026905;28;20504;-59
2022/08/25 04:16:29;;;;;;;4.32;1.17;;;24.20;66.90;;;;;;5022485;28;20045;-58
2022/08/25 04:18:55;;;;;;;4.50;1.30;;;24.20;66.90;;;;;;5028242;28;20105;-58
2022/08/25 04:21:21;;;;;;;5.95;1.40;;;24.20;66.90;;;;;;5027396;28;20201;-58
2022/08/25 04:23:47;;;;;;;6.18;1.67;;;24.20;66.90;;;;;;5026835;28;20030;-58
2022/08/25 04:26:21;;;;;;;5.88;1.40;;;24.20;66.90;;;;;;5026891;28;20037;-58
2022/08/25 04:28:48;;;;;;;5.15;1.35;;;24.20;66.90;;;;;;5027289;28;20106;-58
2022/08/25 04:31:17;;;;;;;5.47;1.40;;;24.10;66.90;;;;;;5024749;28;20172;-58
2022/08/25 04:33:43;;;;;;;4.75;1.30;;;24.10;67.00;;;;;;5027301;28;20063;-58
2022/08/25 04:36:10;;;;;;;2.95;1.38;;;24.10;66.80;;;;;;5027783;28;20088;-58
2022/08/25 04:38:36;;;;;;;3.65;1.38;;;24.10;66.90;;;;;;5023936;28;20030;-58
2022/08/25 04:41:03;;;;;;;4.70;1.40;;;24.10;67.00;;;;;;5042955;28;20026;-58
2022/08/25 04:43:30;;;;;;;5.60;1.45;;;24.10;66.90;;;;;;5026182;28;20033;-58
2022/08/25 04:45:56;;;;;;;4.63;1.58;;;24.10;67.00;;;;;;5026557;28;20048;-58
2022/08/25 04:48:21;;;;;;;6.60;1.55;;;24.10;66.90;;;;;;5027546;28;20025;-58
2022/08/25 04:50:47;;;;;;;6.15;1.30;;;24.10;66.90;;;;;;5027401;28;20164;-58
2022/08/25 04:53:13;;;;;;;6.95;1.67;;;24.10;66.90;;;;;;5026419;28;20045;-58
2022/08/25 04:55:44;;;;;;;3.53;1.33;;;24.10;67.00;;;;;;5027343;28;20034;-58
2022/08/25 04:58:10;;;;;;;4.55;1.30;;;24.10;67.00;;;;;;5027135;28;20052;-58
2022/08/25 05:00:36;;;;;;;4.85;1.40;;;24.10;67.00;;;;;;5023833;28;20129;-58
2022/08/25 05:03:02;;;;;;;4.47;1.13;;;24.10;67.10;;;;;;5025702;28;20109;-58
2022/08/25 05:05:29;;;;;;;5.57;1.30;;;24.10;67.00;;;;;;5026618;28;20045;-58
2022/08/25 05:07:54;;;;;;;4.22;1.30;;;24.10;67.00;;;;;;5026636;28;20078;-58
2022/08/25 05:10:20;;;;;;;5.15;1.50;;;24.10;67.00;;;;;;5024441;28;20071;-58
2022/08/25 05:12:46;;;;;;;5.13;1.35;;;24.10;67.10;;;;;;5025444;28;20057;-58
2022/08/25 05:17:56;;;;;;;4.60;1.30;;;24.10;67.10;;;;;;5026632;28;20561;-58
2022/08/25 05:20:22;;;;;;;5.50;1.60;;;24.10;67.00;;;;;;5026205;28;20120;-58
2022/08/25 05:22:48;;;;;;;4.75;1.48;;;24.10;67.00;;;;;;5027036;28;20371;-58
2022/08/25 05:25:14;;;;;;;6.55;1.63;;;24.00;67.00;;;;;;5023884;28;20087;-58
2022/08/25 05:27:40;;;;;;;3.25;1.17;;;24.00;67.00;;;;;;5022177;28;20087;-58
2022/08/25 05:30:07;;;;;;;7.38;1.45;;;24.00;67.00;;;;;;5023235;28;20037;-58
2022/08/25 05:32:33;;;;;;;4.93;1.38;;;24.00;67.00;;;;;;5025471;28;20112;-58
2022/08/25 05:34:59;;;;;;;3.92;1.23;;;24.00;67.00;;;;;;5025257;28;20116;-58
2022/08/25 05:37:25;;;;;;;5.43;1.50;;;24.00;66.90;;;;;;5027503;28;20029;-58
2022/08/25 05:39:50;;;;;;;5.15;1.42;;;24.00;67.00;;;;;;5026395;28;20396;-58
2022/08/25 05:42:18;;;;;;;5.20;1.55;;;24.00;66.90;;;;;;5022498;28;20033;-58
2022/08/25 05:44:43;;;;;;;5.28;1.40;;;24.00;67.00;;;;;;5025111;28;20045;-58
2022/08/25 05:47:09;;;;;;;5.30;1.48;;;24.00;67.10;;;;;;5027566;28;20087;-58
2022/08/25 05:49:35;;;;;;;4.90;1.52;;;24.00;67.00;;;;;;5027845;28;20375;-58
2022/08/25 05:52:00;;;;;;;5.32;1.40;;;24.00;67.00;;;;;;5026791;28;20042;-58
2022/08/25 05:54:26;;;;;;;6.90;1.63;;;24.00;66.90;;;;;;5028007;28;20102;-58
2022/08/25 05:56:51;;;;;;;5.68;1.58;;;24.00;67.00;;;;;;5027883;28;20746;-58
2022/08/25 05:59:17;;;;;;;3.88;1.40;;;24.00;67.00;;;;;;5026047;28;20039;-58
2022/08/25 06:04:29;;;;;;;4.75;1.55;;;24.00;67.00;;;;;;5026149;28;20040;-58
2022/08/25 06:06:55;;;;;;;5.57;1.40;;;24.00;67.00;;;;;;5025186;28;20129;-58
2022/08/25 06:09:21;;;;;;;4.35;1.50;;;24.00;67.00;;;;;;5025856;28;22160;-58
2022/08/25 06:11:47;;;;;;;5.25;1.38;;;24.00;67.00;;;;;;5027922;28;20041;-58
2022/08/25 06:14:13;;;;;;;4.78;1.30;;;24.00;67.00;;;;;;5023834;28;20036;-58
2022/08/25 06:16:39;;;;;;;4.70;1.50;;;24.00;66.90;;;;;;5027594;28;20075;-58
2022/08/25 06:19:06;;;;;;;4.00;1.35;;;24.00;67.00;;;;;;5025160;28;20489;-58
2022/08/25 06:21:32;;;;;;;3.85;1.20;;;23.90;66.90;;;;;;5023935;28;20040;-58
2022/08/25 06:23:57;;;;;;;7.32;1.58;;;23.90;67.00;;;;;;5023311;28;20152;-58
2022/08/25 06:26:23;;;;;;;4.65;1.40;;;23.90;66.90;;;;;;5025458;28;20537;-58
2022/08/25 06:28:49;;;;;;;4.55;1.50;;;23.90;67.00;;;;;;5024351;28;20058;-58
2022/08/25 06:31:15;;;;;;;4.50;1.42;;;23.90;66.90;;;;;;5023702;28;20032;-58
2022/08/25 06:33:41;;;;;;;6.35;1.50;;;23.90;67.00;;;;;;5025829;28;20414;-58
2022/08/25 06:36:07;;;;;;;3.67;1.15;;;23.90;67.00;;;;;;5024502;28;20608;-58
2022/08/25 06:38:33;;;;;;;5.00;1.45;;;23.90;66.90;;;;;;5024949;28;20033;-58
2022/08/25 06:41:02;;;;;;;5.53;1.70;;;23.90;67.00;;;;;;5027958;28;20026;-58
2022/08/25 06:43:28;;;;;;;5.93;1.50;;;23.90;67.00;;;;;;5026953;28;20022;-58
2022/08/25 06:45:54;;;;;;;4.63;1.50;;;23.90;66.90;;;;;;5027007;28;20744;-58
2022/08/25 06:48:20;;;;;;;5.28;1.33;;;23.90;66.90;;;;;;5025816;28;20104;-58
2022/08/25 06:50:46;;;;;;;6.00;1.50;;;23.90;67.00;;;;;;5027365;28;20045;-58
2022/08/25 06:53:11;;;;;;;4.35;1.33;;;23.90;66.90;;;;;;5026618;28;20084;-58
2022/08/25 06:55:37;;;;;;;3.70;1.30;;;23.90;66.90;;;;;;5025459;28;20033;-57
2022/08/25 06:58:03;;;;;;;6.05;1.60;;;23.90;66.90;;;;;;5023635;28;20038;-58
2022/08/25 07:00:29;;;;;;;4.93;1.27;;;23.90;66.80;;;;;;5028570;28;20029;-58
2022/08/25 07:02:57;;;;;;;4.55;1.30;;;23.90;66.70;;;;;;5031712;28;20025;-58
2022/08/25 07:05:23;;;;;;;5.43;1.30;;;23.90;66.80;;;;;;5019379;28;20147;-58
2022/08/25 07:07:49;;;;;;;5.18;1.25;;;23.90;66.70;;;;;;5032533;28;20022;-58
2022/08/25 07:10:15;;;;;;;5.55;1.40;;;23.90;66.70;;;;;;5034138;28;20041;-58
2022/08/25 07:12:41;;;;;;;3.97;1.15;;;23.90;66.70;;;;;;5029297;28;20049;-58
2022/08/25 07:15:07;;;;;;;5.32;1.27;;;23.90;66.80;;;;;;5029526;28;20088;-58
2022/08/25 07:17:33;;;;;;;4.55;1.40;;;23.90;66.90;;;;;;5031388;28;20053;-58
2022/08/25 07:19:59;;;;;;;6.28;1.50;;;23.90;67.10;;;;;;5029747;28;20030;-57
2022/08/25 07:22:24;;;;;;;8.25;1.30;;;23.90;67.10;;;;;;5029513;28;20425;-57
2022/08/25 07:24:50;;;;;;;5.80;1.48;;;23.90;67.30;;;;;;5029307;28;20117;-58
2022/08/25 07:27:15;;;;;;;10.15;1.50;;;23.90;67.10;;;;;;5029771;28;20061;-57
2022/08/25 07:29:41;;;;;;;5.45;1.27;;;23.90;67.10;;;;;;5029583;28;20080;-57
2022/08/25 07:32:07;;;;;;;5.13;1.30;;;23.90;67.10;;;;;;5028668;28;20052;-58
2022/08/25 07:37:17;;;;;;;5.57;1.50;;;23.90;67.10;;;;;;5029398;28;20067;-57
2022/08/25 07:39:43;;;;;;;5.95;1.30;;;23.90;67.20;;;;;;5028098;28;20401;-58
2022/08/25 07:42:08;;;;;;;7.03;1.63;;;23.90;67.10;;;;;;5027358;28;20030;-57
2022/08/25 07:44:34;;;;;;;6.18;1.50;;;23.90;67.50;;;;;;5029005;28;20501;-58
2022/08/25 07:47:00;;;;;;;7.30;1.52;;;23.90;67.40;;;;;;5029342;28;20033;-58
2022/08/25 07:49:26;;;;;;;6.10;1.30;;;23.80;67.30;;;;;;5029503;28;20029;-58
2022/08/25 07:51:52;;;;;;;5.35;1.30;;;23.90;67.40;;;;;;5029947;28;20042;-58
2022/08/25 07:54:18;;;;;;;7.93;1.55;;;23.90;67.40;;;;;;5029199;28;20048;-58
2022/08/25 07:56:44;;;;;;;6.72;1.35;;;23.90;67.20;;;;;;5029018;28;20169;-59
2022/08/25 07:59:10;;;;;;;7.93;1.50;;;23.90;67.20;;;;;;5028178;28;20028;-58
2022/08/25 08:01:36;;;;;;;6.57;1.40;;;23.90;67.10;;;;;;5011238;28;20084;-59
2022/08/25 08:04:02;;;;;;;7.55;1.50;;;23.90;67.10;;;;;;5032812;28;20029;-58
2022/08/25 08:06:28;;;;;;;8.52;1.67;;;23.80;67.00;;;;;;5025631;28;20972;-59
2022/08/25 08:08:54;;;;;;;6.43;1.63;;;23.90;67.10;;;;;;5024965;28;20144;-59
2022/08/25 08:11:21;;;;;;;6.75;1.55;;;23.90;66.90;;;;;;5028124;28;20033;-59
2022/08/25 08:13:47;;;;;;;5.15;1.30;;;23.80;66.90;;;;;;5026714;28;20112;-59
2022/08/25 08:16:13;;;;;;;9.68;1.67;;;23.90;66.80;;;;;;5025737;28;20053;-59
2022/08/25 08:18:41;;;;;;;4.43;1.40;;;23.90;66.90;;;;;;5025675;28;20029;-59
2022/08/25 08:21:14;;;;;;;6.50;1.63;;;23.90;66.90;;;;;;5029331;28;20095;-59
2022/08/25 08:23:40;;;;;;;5.60;1.52;;;23.90;66.80;;;;;;5027084;28;20030;-58
2022/08/25 08:26:06;;;;;;;8.32;1.50;;;23.90;66.80;;;;;;5027647;28;20395;-59
2022/08/25 08:28:31;;;;;;;7.47;1.60;;;23.90;66.70;;;;;;5028443;28;20039;-59
2022/08/25 08:30:57;;;;;;;7.15;1.60;;;23.90;66.70;;;;;;5026740;28;20022;-59
2022/08/25 08:33:23;;;;;;;6.30;1.60;;;23.90;66.80;;;;;;5031111;28;20031;-58
2022/08/25 08:35:56;;;;;;;6.65;1.40;;;23.90;66.60;;;;;;5025521;28;20033;-59
2022/08/25 08:38:21;;;;;;;8.95;2.03;;;23.90;66.70;;;;;;5023257;28;20025;-58
2022/08/25 08:44:09;;;;;;;7.90;1.65;;;24.00;66.80;;;;;;5023011;28;20630;-58
2022/08/25 08:47:16;;;;;;;7.00;1.60;;;23.90;66.60;;;;;;5023896;28;20097;-58
2022/08/25 08:49:47;;;;;;;8.13;1.52;;;23.90;66.50;;;;;;5026196;28;20036;-58
2022/08/25 08:52:15;;;;;;;7.40;1.50;;;24.00;66.50;;;;;;5024407;28;20062;-58
2022/08/25 08:54:40;;;;;;;8.15;1.60;;;23.90;66.50;;;;;;5030669;28;20087;-59
2022/08/25 08:57:12;;;;;;;6.85;1.60;;;23.90;66.60;;;;;;5024022;28;20582;-59
2022/08/25 08:59:42;;;;;;;7.30;1.45;;;24.00;66.60;;;;;;5050632;28;20024;-59
2022/08/25 09:02:14;;;;;;;8.77;1.52;;;24.00;66.50;;;;;;5025757;28;20041;-59
2022/08/25 09:04:47;;;;;;;6.55;1.52;;;24.00;66.40;;;;;;5008623;28;20021;-58
2022/08/25 09:08:00;;;;;;;5.35;1.50;;;24.00;66.40;;;;;;5026100;28;20041;-59
2022/08/25 09:10:34;;;;;;;7.88;1.60;;;24.00;66.20;;;;;;5025662;28;20033;-58
2022/08/25 09:13:13;;;;;;;6.72;1.33;;;24.00;66.10;;;;;;5025973;28;20514;-58
2022/08/25 09:18:34;;;;;;;8.60;1.52;;;24.00;66.20;;;;;;5027243;28;20091;-58
2022/08/25 09:21:11;;;;;;;5.90;1.70;;;24.00;66.10;;;;;;5024038;28;20429;-58
2022/08/25 09:23:43;;;;;;;6.90;1.20;;;24.00;66.20;;;;;;5027157;28;20025;-58
2022/08/25 09:26:25;;;;;;;7.30;1.63;;;24.00;66.10;;;;;;5041307;28;20410;-58
2022/08/25 09:28:54;;;;;;;8.43;1.75;;;24.00;66.20;;;;;;5024685;28;20049;-58
2022/08/25 09:31:34;;;;;;;9.82;1.50;;;24.00;66.10;;;;;;5030385;28;20037;-58
2022/08/25 09:34:01;;;;;;;5.55;1.30;;;24.00;66.10;;;;;;5028210;28;20036;-59
2022/08/25 09:36:27;;;;;;;9.10;1.75;;;24.00;66.00;;;;;;5028288;28;20033;-59
2022/08/25 09:38:53;;;;;;;8.60;1.67;;;24.00;66.00;;;;;;5027983;28;20048;-59
2022/08/25 09:41:42;;;;;;;6.38;1.75;;;24.00;66.00;;;;;;5025791;28;20036;-59
2022/08/25 09:44:26;;;;;;;6.93;1.50;;;24.00;65.90;;;;;;5025922;28;20026;-60
2022/08/25 09:47:00;;;;;;;10.10;1.50;;;24.00;65.90;;;;;;5026840;28;20520;-60
2022/08/25 09:49:32;;;;;;;9.30;1.70;;;24.00;65.80;;;;;;5028263;28;20041;-60
2022/08/25 09:52:22;;;;;;;5.95;1.40;;;24.00;65.70;;;;;;5026770;28;20038;-58
2022/08/25 09:54:49;;;;;;;9.00;1.58;;;24.10;65.70;;;;;;5024093;28;20500;-58
2022/08/25 09:57:30;;;;;;;5.88;1.48;;;24.00;65.60;;;;;;5023210;28;20112;-58
2022/08/25 10:00:11;;;;;;;8.05;1.55;;;24.10;65.60;;;;;;5022921;28;20052;-58
2022/08/25 10:02:37;;;;;;;8.70;1.50;;;24.10;65.50;;;;;;5019807;28;20044;-58
2022/08/25 10:05:24;;;;;;;7.47;1.35;;;24.10;65.60;;;;;;5001750;28;20029;-58
2022/08/25 10:07:58;;;;;;;6.18;1.50;;;24.10;65.40;;;;;;5022667;28;20051;-59
2022/08/25 10:10:52;;;;;;;9.25;1.38;;;24.10;65.40;;;;;;5024677;28;20061;-59
2022/08/25 10:13:18;;;;;;;9.27;1.42;;;24.10;65.30;;;;;;5022164;28;20038;-59
2022/08/25 10:15:45;;;;;;;9.23;1.40;;;24.10;65.30;;;;;;5022219;28;20509;-58
2022/08/25 10:18:23;;;;;;;8.27;1.50;;;24.10;65.30;;;;;;5007146;28;20038;-59
2022/08/25 10:21:03;;;;;;;7.72;1.30;;;24.10;65.20;;;;;;5021922;28;20564;-58
2022/08/25 10:23:29;;;;;;;6.35;1.52;;;24.10;65.20;;;;;;5027278;28;20029;-59
2022/08/25 10:25:54;;;;;;;8.43;1.65;;;24.20;65.20;;;;;;5021138;28;20667;-59
2022/08/25 10:28:35;;;;;;;7.50;1.40;;;24.20;65.30;;;;;;5021447;28;20148;-58
2022/08/25 10:31:04;;;;;;;8.93;1.40;;;24.20;65.40;;;;;;5016162;28;20090;-59
2022/08/25 10:33:51;;;;;;;10.88;1.60;;;24.30;65.30;;;;;;5020457;28;20029;-58
2022/08/25 10:36:27;;;;;;;13.48;1.95;;;24.20;66.10;;;;;;5015640;28;20069;-59
2022/08/25 10:38:57;;;;;;;13.85;1.90;;;24.10;63.70;;;;;;5016470;28;20184;-59
2022/08/25 10:41:32;;;;;;;14.07;2.08;;;24.10;63.70;;;;;;5020086;28;20030;-59
2022/08/25 10:43:57;;;;;;;;;;;24.00;63.40;;;;;;5023703;28;20026;-59
2022/08/25 10:46:39;;;;;;;11.45;2.13;;;24.00;62.90;;;;;;5017906;28;19917;-58
2022/08/25 10:49:59;;;;;;;12.60;1.90;;;24.00;62.70;;;;;;5016658;28;20029;-59
2022/08/25 10:52:38;;;;;;;13.85;2.00;;;24.00;62.40;;;;;;4995931;28;20060;-59
2022/08/25 10:55:24;;;;;;;12.32;2.15;;;23.90;61.70;;;;;;4981028;28;20400;-59
2022/08/25 10:58:07;;;;;;;10.48;2.00;;;23.90;61.50;;;;;;4998307;28;20045;-59
2022/08/25 11:00:47;;;;;;;10.10;1.63;;;23.70;61.40;;;;;;4988850;28;20027;-58
2022/08/25 11:03:31;;;;;;;11.75;2.00;;;23.80;60.90;;;;;;4987954;28;20041;-58
2022/08/25 11:06:08;;;;;;;11.32;1.90;;;23.80;61.40;;;;;;4981596;28;20553;-58
2022/08/25 11:08:39;;;;;;;11.73;2.13;;;23.70;61.10;;;;;;4986327;28;20044;-59
2022/08/25 11:11:31;;;;;;;10.75;2.03;;;23.70;61.40;;;;;;4967272;28;20619;-59
2022/08/25 11:14:21;;;;;;;10.73;1.52;;;23.80;61.50;;;;;;4996942;28;20113;-58
2022/08/25 11:16:54;;;;;;;12.63;2.00;;;23.80;61.50;;;;;;4978574;28;20057;-58
2022/08/25 11:19:39;;;;;;;11.27;1.90;;;23.80;61.40;;;;;;4976910;28;20041;-59
2022/08/25 11:22:22;;;;;;;11.23;1.95;;;23.90;61.70;;;;;;4982313;28;20462;-58
2022/08/25 11:25:15;;;;;;;10.40;1.90;;;23.80;61.40;;;;;;4994510;28;20034;-58
2022/08/25 11:28:07;;;;;;;10.75;1.80;;;23.80;61.30;;;;;;5022923;28;20053;-59
2022/08/25 11:30:37;;;;;;;12.00;1.90;;;23.80;61.50;;;;;;5023722;28;20061;-58
2022/08/25 11:33:11;;;;;;;12.55;1.83;;;23.80;61.20;;;;;;5022610;28;20029;-59
2022/08/25 11:35:42;;;;;;;11.48;1.75;;;23.80;61.30;;;;;;5011763;28;20037;-58
2022/08/25 11:38:26;;;;;;;13.77;2.47;;;23.80;61.20;;;;;;5014063;28;20086;-58
2022/08/25 11:41:14;;;;;;;13.20;1.87;;;23.80;61.50;;;;;;5020489;28;20113;-58
2022/08/25 11:44:17;;;;;;;12.57;1.77;;;23.80;62.20;;;;;;5022525;28;20549;-58
2022/08/25 11:46:51;;;;;;;13.30;2.25;;;23.70;62.10;;;;;;5040822;28;20025;-59
2022/08/25 11:49:55;;;;;;;10.63;1.92;;;23.70;62.20;;;;;;5021886;28;20037;-58
2022/08/25 11:52:30;;;;;;;11.70;1.95;;;23.70;62.30;;;;;;5027182;28;20033;-59
2022/08/25 11:55:09;;;;;;;12.98;1.98;;;23.70;61.80;;;;;;5029417;28;20697;-58
2022/08/25 11:57:35;;;;;;;12.90;1.63;;;23.70;61.80;;;;;;5039011;28;20057;-58
2022/08/25 12:00:28;;;;;;;10.82;1.98;;;23.80;62.00;;;;;;5028181;28;20064;-58
2022/08/25 12:02:53;;;;;;;12.00;1.67;;;23.80;61.80;;;;;;5028177;28;20057;-59
2022/08/25 12:05:20;;;;;;;10.50;1.75;;;23.90;61.70;;;;;;5028349;28;20529;-59
2022/08/25 12:07:46;;;;;;;14.85;2.20;;;24.00;61.80;;;;;;5025912;28;20029;-58
2022/08/25 12:10:19;;;;;;;10.93;1.70;;;23.90;61.10;;;;;;5032131;28;20528;-59
2022/08/25 12:12:45;;;;;;;12.07;2.03;;;24.00;60.80;;;;;;5028130;28;20116;-58
2022/08/25 12:15:27;;;;;;;12.35;1.95;;;24.00;60.80;;;;;;5031843;28;20128;-59
2022/08/25 12:18:09;;;;;;;9.50;1.77;;;24.00;60.30;;;;;;5029352;28;20041;-59
2022/08/25 12:20:56;;;;;;;10.90;1.67;;;24.00;60.50;;;;;;5028150;28;20022;-58
2022/08/25 12:23:41;;;;;;;10.50;1.60;;;24.00;60.00;;;;;;5027605;28;20041;-59
2022/08/25 12:26:26;;;;;;;11.73;1.95;;;24.00;60.00;;;;;;5026721;28;20048;-59
2022/08/25 12:29:10;;;;;;;;;;;24.00;59.20;;;;;;5028424;28;20041;-58
2022/08/25 12:32:06;;;;;;;11.00;1.67;;;24.10;60.10;;;;;;5029723;28;19916;-58
2022/08/25 12:34:37;;;;;;;10.73;1.73;;;24.20;60.00;;;;;;5029037;28;20041;-59
2022/08/25 12:37:10;;;;;;;8.55;1.58;;;24.30;60.30;;;;;;5027081;28;20041;-59
2022/08/25 12:39:41;;;;;;;13.00;1.95;;;24.30;60.20;;;;;;5025283;28;20032;-59
2022/08/25 12:42:11;;;;;;;10.35;1.83;;;24.40;60.30;;;;;;5025812;28;20029;-58
2022/08/25 12:44:46;;;;;;;8.65;1.50;;;24.40;60.10;;;;;;5027855;28;20466;-58
2022/08/25 12:47:27;;;;;;;10.20;1.80;;;24.40;60.20;;;;;;5027756;28;20160;-58
2022/08/25 12:49:53;;;;;;;10.00;1.77;;;24.40;60.10;;;;;;5028373;28;20025;-58
2022/08/25 12:52:20;;;;;;;8.02;1.70;;;24.50;60.20;;;;;;5027266;28;20628;-58
2022/08/25 12:54:57;;;;;;;8.93;1.67;;;24.60;60.20;;;;;;5010688;28;20048;-58
2022/08/25 12:57:39;;;;;;;11.15;1.80;;;24.60;60.20;;;;;;5011031;28;20030;-59
2022/08/25 13:00:23;;;;;;;10.32;1.45;;;24.60;60.20;;;;;;5026171;28;20027;-59
2022/08/25 13:02:51;;;;;;;8.23;1.50;;;24.60;60.00;;;;;;5025196;28;20044;-58
2022/08/25 13:05:35;;;;;;;8.60;1.63;;;24.70;60.10;;;;;;5027202;28;20029;-59
2022/08/25 13:08:22;;;;;;;8.63;1.40;;;24.70;60.00;;;;;;5037697;28;20022;-59
2022/08/25 13:11:18;;;;;;;8.82;1.60;;;24.80;60.00;;;;;;5029255;28;20036;-59
2022/08/25 13:14:01;;;;;;;7.75;1.42;;;24.80;59.90;;;;;;5021812;28;20026;-59
2022/08/25 13:16:28;;;;;;;9.18;1.70;;;24.80;59.70;;;;;;5026081;28;20131;-58
2022/08/25 13:18:57;;;;;;;9.85;1.60;;;24.90;59.80;;;;;;5028355;28;20017;-59